Thursday, October 30, 2014
16:44 UTC
  |  Log In   |  Register Free
Airport Search:

Richmond Municipal Airport
(KRID)

Richmond Municipal Airport Diagram
No Airport Diagram Available

FAA data valid effective September 18, 2014 - November 13, 2014 (unless otherwise noted).

 
 
 
 
 
 
 
 
 
 
 
 
 
 

Current Aviation Weather for Richmond Municipal Airport (KRID)

METAR data is unavailable for RID. The nearest METAR location is at KMWO (24.7 nm SE from RID).

The most recent METAR observation for KMWO was updated at: 1616
METAR Summary (Translated METAR)
KMWO
301555Z AUTO 05004KT 10SM BKN040 10/M01 A3018 RMK AO2 T01001007
(24.7 nm SE from KRID)
KHAO
301553Z AUTO 13003KT 10SM FEW040 10/01 A3017 RMK AO2 SLP218 T01000006
(27.9 nm SE from KRID)
TAF Summary (Translated TAF)
KDAY
(23.7 nm NE from KMWO)
301132Z 3012/3112 32004KT P6SM BKN040 FM302000 VRB03KT P6SM SCT040 SCT120 BKN200 FM310000 00000KT P6SM BKN080 FM310900 26004KT P6SM BKN050 OVC080
  Airport Weather Conditions for KRID

Current weather conditions are
not available for RID


The nearest NOAA weather station
is at MWO, (24.7 nm SE from RID)
  
 Current Weather at MWO
50° F
Mostly Cloudy
Northeast winds at 4.6 mph
MWO NOAA Radar

Pressure: 30.18 in
Humidity: 48%
Wind: Northeast at 4.6 MPH (4 KT)
Dew Point: 30.7°F
Visibility: 10.00 mi


Airport Weather Forecast for KRID

Translated METAR and TAF for KMWO
Translated METAR for KMWO (1639 UTC 30 October 2014)
found at http://aviationweather.gov/adds/metars/
 
METAR text: KMWO 301635Z AUTO 00000KT 10SM CLR 10/M01 A3017 RMK AO2 T00981015
Conditions at: KMWO (MIDDLETOWN/HOOK , OH, US) observed 1635 UTC 30 October 2014
Temperature: 9.8°C (50°F)
Dewpoint: -1.5°C (29°F) [RH = 45%]
Pressure (altimeter): 30.17 inches Hg (1021.8 mb)
Winds: calm
Visibility: 10 or more miles (16+ km)
Ceiling: at least 12,000 feet AGL
Clouds: sky clear below 12,000 feet AGL
Weather: automated observation with no human augmentation;
there may or may not be significant weather present at this time
Translated TAF for KMWO

There is no translated TAF available for this airport

Find All Airport Services Find A Hotel Find A Rental Car Find A Golf Course Find A Restaurant $100 Hamburger



FBO's on the Field
FBO Company Facility Photos Services Transportation Aviation Fuel Prices: Prices include tax
Catering Weather Repair Courtesy Rental Type 100LL JetA JetA+ MOGAS 8087
 
Richmond Municipal Airport

This FBO has not yet been rated
FS:Phillips 66
Last Updated: Oct-29
Login to update fuel prices
SS:
Contact Richmond Municipal AirportMore FBO Information
 
Add another FBO Facility Photos Catering Weather Repair Courtesy Rental Type 100LL JetA JetA+ MOGAS 8087
Services Transportation Aviation Fuel Prices: Prices include tax


model-print
model-print
model-print
model-print